Gas Leo — VRPQ3 — position and weather

sailwx.info

Track history (hours):
 
Tides and Currents Weather Stations Pressure Air Temp Water Temp Dewpoint Dewpoint Depression Visibility Wind Speed Wind Dir Waves Ship Positions

Gas Leo

Last reported at 2018-Jun-07 19:54 UTC. Time now 2018-Jun-21 04:47 UTC.
Position N 30°49' E 125°31'.
Warning: this ship's position is 13 days out of date.

Length 226 m; draft 6.8 m.

Type: Ship. MMSI: 477654800.

Date/timePositionNaut miles runAvg speedWind from/ knotsBaromVisibWave heightAir tempDewpointWater temp
2018-Jun-07 19:54N 30°49' E 125°31'17116.2
2018-Jun-07 09:23N 31°02' E 122°13'4 9.0
2018-Jun-07 09:00N 31°03' E 122°09'5 9.6
2018-Jun-07 08:30N 31°04' E 122°04'510.1
2018-Jun-07 08:00N 31°06' E 121°58'612.6
2018-Jun-07 07:31N 31°10' E 121°52'714.2
2018-Jun-07 07:00N 31°15' E 121°46'813.0
2018-Jun-07 06:25N 31°21' E 121°40'511.2
2018-Jun-07 05:57N 31°23' E 121°35'510.8
2018-Jun-07 05:28N 31°26' E 121°30'4 8.8
2018-Jun-07 05:00N 31°29' E 121°26'611.7
2018-Jun-07 04:30N 31°32' E 121°21'4 0.1
2018-Jun-05 05:24N 31°35' E 121°17'1 1.5
2018-Jun-05 04:58N 31°35' E 121°18'2 4.6
2018-Jun-05 04:30N 31°34' E 121°20'0 0.1
2018-Jun-05 04:00N 31°34' E 121°20'0 0.1
2018-Jun-05 03:30N 31°34' E 121°20'0 0.0
2018-Jun-05 02:57N 31°34' E 121°20'0 0.0
2018-Jun-05 02:30N 31°34' E 121°20'0 0.0
2018-Jun-05 02:00N 31°34' E 121°20'0 0.0
2018-Jun-05 01:30N 31°34' E 121°20'0 0.0
2018-Jun-05 01:00N 31°34' E 121°20'0 0.0
2018-Jun-05 00:27N 31°34' E 121°20'0 0.0
2018-Jun-05 00:00N 31°34' E 121°20'0 0.0
2018-Jun-04 23:27N 31°34' E 121°20'0 0.0
2018-Jun-04 23:00N 31°34' E 121°20'0 0.1
2018-Jun-04 22:27N 31°34' E 121°20'0 0.3
2018-Jun-04 21:57N 31°34' E 121°20'0 0.0
2018-Jun-04 21:27N 31°34' E 121°20'0 0.1
2018-Jun-04 21:00N 31°34' E 121°20'0 0.0
2018-Jun-04 20:30N 31°34' E 121°20'0 0.0
2018-Jun-04 20:00N 31°34' E 121°20'0 0.0
2018-Jun-04 19:27N 31°34' E 121°20'0 0.0
2018-Jun-04 19:00N 31°34' E 121°20'0 0.1
2018-Jun-04 18:30N 31°34' E 121°20'0 0.2
2018-Jun-04 17:57N 31°34' E 121°20'0 0.1
2018-Jun-04 17:30N 31°34' E 121°20'0 0.1
2018-Jun-04 16:57N 31°34' E 121°20'0 0.0
2018-Jun-04 16:30N 31°34' E 121°20'0 0.0
2018-Jun-04 15:57N 31°34' E 121°20'0 0.0
2018-Jun-04 15:27N 31°34' E 121°20'0 0.0
2018-Jun-04 15:00N 31°34' E 121°20'0 0.0
2018-Jun-04 14:30N 31°34' E 121°20'0 0.0
2018-Jun-04 13:51N 31°34' E 121°20'0 0.0
2018-Jun-04 13:27N 31°34' E 121°20'0 0.0
2018-Jun-04 13:00N 31°34' E 121°20'0 0.1
2018-Jun-04 12:28N 31°34' E 121°20'1 1.4
2018-Jun-04 12:01N 31°34' E 121°20'510.0
2018-Jun-04 11:30N 31°37' E 121°16'611.8
2018-Jun-04 11:00N 31°41' E 121°10'611.7
2018-Jun-04 10:28N 31°45' E 121°05'32 9.8
2018-Jun-04 07:09N 32°01' E 120°32'212.8
2018-Jun-04 06:59N 32°02' E 120°29'  
2018-May-31 13:03N 32°00' E 120°27'0 0.0
2018-May-31 11:06N 32°00' E 120°27'0 0.0
2018-May-31 10:48N 32°00' E 120°27'0 0.6
2018-May-31 10:30N 32°00' E 120°27'2 4.1
2018-May-31 10:00N 32°02' E 120°28'510.0
2018-May-31 09:30N 32°01' E 120°34'2610.2
2018-May-31 06:57N 31°47' E 120°59'613.7
2018-May-31 06:29N 31°44' E 121°06'714.5
2018-May-31 06:00N 31°40' E 121°12'714.2
2018-May-31 05:30N 31°35' E 121°18'612.8
2018-May-31 05:00N 31°31' E 121°24'510.9
2018-May-31 04:30N 31°27' E 121°29'12 8.3
2018-May-31 03:03N 31°21' E 121°41'2 9.2
2018-May-31 02:49N 31°19' E 121°43'4 9.9
2018-May-31 02:27N 31°18' E 121°47'5 9.7
2018-May-31 01:57N 31°16' E 121°52'5 8.6
2018-May-31 01:23N 31°15' E 121°58'3 9.0
2018-May-31 01:00N 31°15' E 122°02'4 8.9
2018-May-31 00:30N 31°13' E 122°07'5 7.8
2018-May-30 23:54N 31°11' E 122°11'3 6.9
2018-May-30 23:30N 31°09' E 122°14'4 8.1
2018-May-30 22:59N 31°07' E 122°18'5 9.8
2018-May-30 22:30N 31°06' E 122°23'6 9.7
2018-May-30 21:53N 31°07' E 122°30'3 6.8
2018-May-30 21:30N 31°07' E 122°33'3 5.3
2018-May-30 21:00N 31°07' E 122°36'3 6.5
2018-May-30 20:30N 31°07' E 122°40'4 7.6
2018-May-30 19:59N 31°07' E 122°45'3 2.1
2018-May-30 18:39N 31°07' E 122°48'0 0.0
2018-May-30 11:57N 31°07' E 122°48'0 0.1
2018-May-30 11:12N 31°07' E 122°48'0 0.1
2018-May-30 10:12N 31°07' E 122°48'0 0.2
2018-May-30 09:54N 31°07' E 122°48'0 0.0
2018-May-30 09:24N 31°07' E 122°48'0 0.0
2018-May-30 08:57N 31°07' E 122°48'0 0.1
2018-May-30 02:00N 31°08' E 122°48'0 0.1
2018-May-30 01:24N 31°08' E 122°48'0 1.1
2018-May-30 00:58N 31°07' E 122°48'3 5.2
2018-May-30 00:19N 31°05' E 122°51'3 9.5
2018-May-30 00:00N 31°03' E 122°53'  
Track history (hours):
 
Tides and Currents Weather Stations Pressure Air Temp Water Temp Dewpoint Dewpoint Depression Visibility Wind Speed Wind Dir Waves Ship Positions

Gas Leo

Last reported at 2018-Jun-07 19:54 UTC. Time now 2018-Jun-21 04:47 UTC.
Position N 30°49' E 125°31'.
Warning: this ship's position is 13 days out of date.

Length 226 m; draft 6.8 m.

Type: Ship. MMSI: 477654800.

Date/timePositionNaut miles runAvg speedWind from/ knotsBaromVisibWave heightAir tempDewpointWater temp
2018-Jun-07 19:54N 30°49' E 125°31'17116.2
2018-Jun-07 09:23N 31°02' E 122°13'4 9.0
2018-Jun-07 09:00N 31°03' E 122°09'5 9.6
2018-Jun-07 08:30N 31°04' E 122°04'510.1
2018-Jun-07 08:00N 31°06' E 121°58'612.6
2018-Jun-07 07:31N 31°10' E 121°52'714.2
2018-Jun-07 07:00N 31°15' E 121°46'813.0
2018-Jun-07 06:25N 31°21' E 121°40'511.2
2018-Jun-07 05:57N 31°23' E 121°35'510.8
2018-Jun-07 05:28N 31°26' E 121°30'4 8.8
2018-Jun-07 05:00N 31°29' E 121°26'611.7
2018-Jun-07 04:30N 31°32' E 121°21'4 0.1
2018-Jun-05 05:24N 31°35' E 121°17'1 1.5
2018-Jun-05 04:58N 31°35' E 121°18'2 4.6
2018-Jun-05 04:30N 31°34' E 121°20'0 0.1
2018-Jun-05 04:00N 31°34' E 121°20'0 0.1
2018-Jun-05 03:30N 31°34' E 121°20'0 0.0
2018-Jun-05 02:57N 31°34' E 121°20'0 0.0
2018-Jun-05 02:30N 31°34' E 121°20'0 0.0
2018-Jun-05 02:00N 31°34' E 121°20'0 0.0
2018-Jun-05 01:30N 31°34' E 121°20'0 0.0
2018-Jun-05 01:00N 31°34' E 121°20'0 0.0
2018-Jun-05 00:27N 31°34' E 121°20'0 0.0
2018-Jun-05 00:00N 31°34' E 121°20'0 0.0
2018-Jun-04 23:27N 31°34' E 121°20'0 0.0
2018-Jun-04 23:00N 31°34' E 121°20'0 0.1
2018-Jun-04 22:27N 31°34' E 121°20'0 0.3
2018-Jun-04 21:57N 31°34' E 121°20'0 0.0
2018-Jun-04 21:27N 31°34' E 121°20'0 0.1
2018-Jun-04 21:00N 31°34' E 121°20'0 0.0
2018-Jun-04 20:30N 31°34' E 121°20'0 0.0
2018-Jun-04 20:00N 31°34' E 121°20'0 0.0
2018-Jun-04 19:27N 31°34' E 121°20'0 0.0
2018-Jun-04 19:00N 31°34' E 121°20'0 0.1
2018-Jun-04 18:30N 31°34' E 121°20'0 0.2
2018-Jun-04 17:57N 31°34' E 121°20'0 0.1
2018-Jun-04 17:30N 31°34' E 121°20'0 0.1
2018-Jun-04 16:57N 31°34' E 121°20'0 0.0
2018-Jun-04 16:30N 31°34' E 121°20'0 0.0
2018-Jun-04 15:57N 31°34' E 121°20'0 0.0
2018-Jun-04 15:27N 31°34' E 121°20'0 0.0
2018-Jun-04 15:00N 31°34' E 121°20'0 0.0
2018-Jun-04 14:30N 31°34' E 121°20'0 0.0
2018-Jun-04 13:51N 31°34' E 121°20'0 0.0
2018-Jun-04 13:27N 31°34' E 121°20'0 0.0
2018-Jun-04 13:00N 31°34' E 121°20'0 0.1
2018-Jun-04 12:28N 31°34' E 121°20'1 1.4
2018-Jun-04 12:01N 31°34' E 121°20'510.0
2018-Jun-04 11:30N 31°37' E 121°16'611.8
2018-Jun-04 11:00N 31°41' E 121°10'611.7
2018-Jun-04 10:28N 31°45' E 121°05'32 9.8
2018-Jun-04 07:09N 32°01' E 120°32'212.8
2018-Jun-04 06:59N 32°02' E 120°29'  
2018-May-31 13:03N 32°00' E 120°27'0 0.0
2018-May-31 11:06N 32°00' E 120°27'0 0.0
2018-May-31 10:48N 32°00' E 120°27'0 0.6
2018-May-31 10:30N 32°00' E 120°27'2 4.1
2018-May-31 10:00N 32°02' E 120°28'510.0
2018-May-31 09:30N 32°01' E 120°34'2610.2
2018-May-31 06:57N 31°47' E 120°59'613.7
2018-May-31 06:29N 31°44' E 121°06'714.5
2018-May-31 06:00N 31°40' E 121°12'714.2
2018-May-31 05:30N 31°35' E 121°18'612.8
2018-May-31 05:00N 31°31' E 121°24'510.9
2018-May-31 04:30N 31°27' E 121°29'12 8.3
2018-May-31 03:03N 31°21' E 121°41'2 9.2
2018-May-31 02:49N 31°19' E 121°43'4 9.9
2018-May-31 02:27N 31°18' E 121°47'5 9.7
2018-May-31 01:57N 31°16' E 121°52'5 8.6
2018-May-31 01:23N 31°15' E 121°58'3 9.0
2018-May-31 01:00N 31°15' E 122°02'4 8.9
2018-May-31 00:30N 31°13' E 122°07'5 7.8
2018-May-30 23:54N 31°11' E 122°11'3 6.9
2018-May-30 23:30N 31°09' E 122°14'4 8.1
2018-May-30 22:59N 31°07' E 122°18'5 9.8
2018-May-30 22:30N 31°06' E 122°23'6 9.7
2018-May-30 21:53N 31°07' E 122°30'3 6.8
2018-May-30 21:30N 31°07' E 122°33'3 5.3
2018-May-30 21:00N 31°07' E 122°36'3 6.5
2018-May-30 20:30N 31°07' E 122°40'4 7.6
2018-May-30 19:59N 31°07' E 122°45'3 2.1
2018-May-30 18:39N 31°07' E 122°48'0 0.0
2018-May-30 11:57N 31°07' E 122°48'0 0.1
2018-May-30 11:12N 31°07' E 122°48'0 0.1
2018-May-30 10:12N 31°07' E 122°48'0 0.2
2018-May-30 09:54N 31°07' E 122°48'0 0.0
2018-May-30 09:24N 31°07' E 122°48'0 0.0
2018-May-30 08:57N 31°07' E 122°48'0 0.1
2018-May-30 02:00N 31°08' E 122°48'0 0.1
2018-May-30 01:24N 31°08' E 122°48'0 1.1
2018-May-30 00:58N 31°07' E 122°48'3 5.2
2018-May-30 00:19N 31°05' E 122°51'3 9.5
2018-May-30 00:00N 31°03' E 122°53'  

Dump ship's entire track history